createdAt,value
2023-04-22T00:00:14.448Z,34.03
2023-04-22T00:02:41.566Z,33.10
2023-04-22T00:05:09.252Z,33.50
2023-04-22T00:07:36.135Z,38.90
2023-04-22T00:10:02.929Z,38.63
2023-04-22T00:12:29.750Z,36.13
2023-04-22T00:14:56.592Z,34.87
2023-04-22T00:17:23.588Z,38.70
2023-04-22T00:19:50.365Z,39.17
2023-04-22T00:22:17.169Z,37.77
2023-04-22T00:24:43.906Z,36.60
2023-04-22T00:27:10.852Z,35.73
2023-04-22T00:29:38.411Z,38.13
2023-04-22T00:32:05.893Z,39.73
2023-04-22T00:34:32.604Z,39.07
2023-04-22T00:36:59.392Z,42.70
2023-04-22T00:39:26.250Z,40.83
2023-04-22T00:41:53.547Z,43.23
2023-04-22T00:44:20.629Z,43.30
2023-04-22T00:46:47.566Z,41.53
2023-04-22T00:49:15.060Z,58.70
2023-04-22T00:51:41.821Z,47.70
2023-04-22T00:54:08.634Z,41.20
2023-04-22T00:56:38.167Z,48.17
2023-04-22T00:59:04.993Z,85.90
2023-04-22T01:01:32.759Z,39.77
2023-04-22T01:04:00.994Z,39.13
2023-04-22T01:06:31.438Z,56.70
2023-04-22T01:08:59.100Z,53.70
2023-04-22T01:11:25.963Z,45.80
2023-04-22T01:13:53.211Z,41.83
2023-04-22T01:16:20.689Z,98.37
2023-04-22T01:18:47.594Z,69.77
2023-04-22T01:21:14.851Z,49.37
2023-04-22T01:23:41.784Z,47.13
2023-04-22T01:26:09.565Z,64.73
2023-04-22T01:28:36.573Z,57.27
2023-04-22T01:31:03.889Z,56.53
2023-04-22T01:33:31.044Z,54.83
2023-04-22T01:35:57.893Z,47.93
2023-04-22T01:38:24.903Z,52.80
2023-04-22T01:40:51.943Z,62.57
2023-04-22T01:43:19.364Z,66.97
2023-04-22T01:45:46.786Z,60.70
2023-04-22T01:48:13.615Z,65.10
2023-04-22T01:50:40.374Z,64.83
2023-04-22T01:53:08.709Z,50.33
2023-04-22T01:55:36.290Z,47.43
2023-04-22T01:58:04.588Z,52.17
2023-04-22T02:00:31.956Z,51.07
2023-04-22T02:02:58.762Z,52.10
2023-04-22T02:05:26.489Z,52.00
2023-04-22T02:07:54.104Z,52.23
2023-04-22T02:10:21.500Z,42.77
2023-04-22T02:12:48.241Z,50.87
2023-04-22T02:15:15.297Z,65.90
2023-04-22T02:17:43.373Z,52.07
2023-04-22T02:20:11.513Z,49.03
2023-04-22T02:22:39.261Z,42.13
2023-04-22T02:25:06.627Z,41.00
2023-04-22T02:27:33.358Z,64.33
2023-04-22T02:30:00.590Z,45.27
2023-04-22T02:32:27.438Z,58.10
2023-04-22T02:34:54.243Z,51.27
2023-04-22T02:37:22.847Z,43.43
2023-04-22T02:39:49.932Z,55.27
2023-04-22T02:42:16.712Z,48.10
2023-04-22T02:44:43.507Z,43.30
2023-04-22T02:47:10.357Z,47.47
2023-04-22T02:49:37.343Z,46.80
2023-04-22T02:52:05.113Z,43.80
2023-04-22T02:54:31.817Z,43.73
2023-04-22T02:56:58.809Z,43.93
2023-04-22T02:59:25.572Z,41.33
2023-04-22T03:01:52.303Z,45.13
2023-04-22T03:04:21.987Z,40.47
2023-04-22T03:06:52.448Z,43.03
2023-04-22T03:09:19.214Z,40.70
2023-04-22T03:11:46.316Z,39.50
2023-04-22T03:14:13.153Z,40.23
2023-04-22T03:16:40.041Z,41.07
2023-04-22T03:19:06.913Z,42.60
2023-04-22T03:21:33.691Z,40.57
2023-04-22T03:24:00.541Z,41.17
2023-04-22T03:26:27.449Z,42.33
2023-04-22T03:28:54.576Z,40.63
2023-04-22T03:31:21.608Z,38.97
2023-04-22T03:33:48.496Z,39.07
2023-04-22T03:36:15.731Z,38.60
2023-04-22T03:38:42.519Z,41.07
2023-04-22T03:41:09.637Z,41.33
2023-04-22T03:43:36.454Z,38.83
2023-04-22T03:46:03.289Z,41.67
2023-04-22T03:48:34.984Z,40.60
2023-04-22T03:51:02.667Z,39.57
2023-04-22T03:53:29.456Z,38.87
2023-04-22T03:55:56.193Z,38.33
2023-04-22T03:58:22.921Z,38.30
2023-04-22T04:00:49.746Z,38.23
2023-04-22T04:03:16.707Z,41.00
2023-04-22T04:05:44.104Z,39.23
2023-04-22T04:08:11.308Z,43.77
2023-04-22T04:10:38.298Z,40.83
2023-04-22T04:13:05.115Z,40.23
2023-04-22T04:15:32.804Z,41.60
2023-04-22T04:18:01.419Z,42.17
2023-04-22T04:20:28.664Z,40.57
2023-04-22T04:22:56.296Z,40.13
2023-04-22T04:25:23.389Z,41.20
2023-04-22T04:27:51.875Z,39.73
2023-04-22T04:30:19.670Z,39.57
2023-04-22T04:32:46.456Z,38.10
2023-04-22T04:35:14.226Z,40.20
2023-04-22T04:37:43.497Z,42.37
2023-04-22T04:40:12.245Z,40.40
2023-04-22T04:42:39.084Z,43.50
2023-04-22T04:45:06.519Z,40.40
2023-04-22T04:47:34.078Z,39.83
2023-04-22T04:50:01.754Z,39.90
2023-04-22T04:52:28.460Z,41.97
2023-04-22T04:54:55.331Z,40.90
2023-04-22T04:57:22.108Z,44.60
2023-04-22T04:59:48.870Z,44.63
2023-04-22T05:02:15.770Z,44.00
2023-04-22T05:04:42.676Z,41.93
2023-04-22T05:07:09.539Z,45.93
2023-04-22T05:09:37.781Z,45.43
2023-04-22T05:12:05.150Z,44.47
2023-04-22T05:14:32.074Z,43.03
2023-04-22T05:16:58.933Z,43.80
2023-04-22T05:19:25.727Z,43.07
2023-04-22T05:21:52.466Z,42.33
2023-04-22T05:24:19.258Z,44.17
2023-04-22T05:26:45.997Z,44.30
2023-04-22T05:29:12.750Z,43.60
2023-04-22T05:31:39.722Z,45.13
2023-04-22T05:34:06.666Z,45.30
2023-04-22T05:36:33.411Z,43.03
2023-04-22T05:39:00.453Z,45.57
2023-04-22T05:41:27.251Z,43.50
2023-04-22T05:43:54.083Z,42.53
2023-04-22T05:46:21.097Z,41.50
2023-04-22T05:48:48.856Z,39.20
2023-04-22T05:51:15.731Z,41.47
2023-04-22T05:53:42.558Z,42.40
2023-04-22T05:56:09.348Z,45.27
2023-04-22T05:58:36.110Z,43.67
2023-04-22T06:01:02.921Z,43.43
2023-04-22T06:03:30.321Z,40.17
2023-04-22T06:05:57.975Z,40.87
2023-04-22T06:08:25.010Z,39.30
2023-04-22T06:10:51.956Z,37.87
2023-04-22T06:13:18.768Z,39.20
2023-04-22T06:15:45.548Z,40.10
2023-04-22T06:18:12.435Z,39.87
2023-04-22T06:20:39.527Z,38.57
2023-04-22T06:23:06.286Z,38.87
2023-04-22T06:25:33.568Z,39.67
2023-04-22T06:28:00.317Z,38.93
2023-04-22T06:30:27.908Z,39.63
2023-04-22T06:32:55.378Z,39.73
2023-04-22T06:35:22.392Z,38.97
2023-04-22T06:37:49.110Z,39.70
2023-04-22T06:40:15.980Z,36.87
2023-04-22T06:42:42.789Z,39.80
2023-04-22T06:45:12.749Z,36.70
2023-04-22T06:47:40.280Z,36.43
2023-04-22T06:50:10.905Z,38.60
2023-04-22T06:52:37.699Z,38.63
2023-04-22T06:55:05.123Z,37.37
2023-04-22T06:57:32.091Z,36.37
2023-04-22T06:59:58.902Z,36.77
2023-04-22T07:02:25.781Z,35.70
2023-04-22T07:04:52.691Z,38.27
2023-04-22T07:07:19.487Z,38.37
2023-04-22T07:09:46.305Z,37.00
2023-04-22T07:12:13.178Z,38.03
2023-04-22T07:14:46.709Z,36.80
2023-04-22T07:17:13.652Z,35.50
2023-04-22T07:19:40.913Z,36.53
2023-04-22T07:22:08.586Z,34.87
2023-04-22T07:24:35.390Z,36.60
2023-04-22T07:27:02.625Z,35.90
2023-04-22T07:29:29.386Z,36.77
2023-04-22T07:31:56.186Z,36.23
2023-04-22T07:34:23.054Z,33.70
2023-04-22T07:36:52.282Z,36.57
2023-04-22T07:39:19.210Z,37.67
2023-04-22T07:41:45.986Z,36.93
2023-04-22T07:44:16.480Z,34.00
2023-04-22T07:46:43.704Z,36.33
2023-04-22T07:49:10.564Z,34.23
2023-04-22T07:51:37.312Z,34.93
2023-04-22T07:54:04.135Z,35.27
2023-04-22T07:56:31.068Z,36.70
2023-04-22T07:58:57.803Z,35.70
2023-04-22T08:01:24.617Z,35.90
2023-04-22T08:03:51.637Z,32.20
2023-04-22T08:06:19.051Z,33.20
2023-04-22T08:08:46.106Z,35.03
2023-04-22T08:11:12.886Z,36.73
2023-04-22T08:13:39.686Z,35.17
2023-04-22T08:16:07.615Z,34.63
2023-04-22T08:18:35.143Z,32.83
2023-04-22T08:21:02.104Z,33.63
2023-04-22T08:23:29.002Z,33.90
2023-04-22T08:25:55.798Z,33.97
2023-04-22T08:28:22.790Z,33.17
2023-04-22T08:30:49.959Z,32.63
2023-04-22T08:33:17.530Z,30.67
2023-04-22T08:35:44.343Z,32.87
2023-04-22T08:38:11.116Z,34.83
2023-04-22T08:40:42.018Z,31.93
2023-04-22T08:43:09.696Z,34.23
2023-04-22T08:45:39.721Z,33.57
2023-04-22T08:48:09.068Z,35.70
2023-04-22T08:50:38.296Z,33.30
2023-04-22T08:53:05.102Z,33.57
2023-04-22T08:55:32.436Z,34.10
2023-04-22T08:58:01.745Z,34.73
2023-04-22T09:00:28.601Z,34.53
2023-04-22T09:02:57.369Z,32.80
2023-04-22T09:05:27.846Z,35.83
2023-04-22T09:07:55.275Z,32.27
2023-04-22T09:10:22.100Z,32.93
2023-04-22T09:12:49.459Z,34.30
2023-04-22T09:15:16.644Z,32.47
2023-04-22T09:17:43.815Z,31.33
2023-04-22T09:20:12.234Z,30.47
2023-04-22T09:22:41.765Z,32.43
2023-04-22T09:25:28.957Z,34.33
2023-04-22T09:27:59.990Z,31.80
2023-04-22T09:30:31.723Z,30.90
2023-04-22T09:33:00.455Z,30.13
2023-04-22T09:35:39.913Z,30.20
2023-04-22T09:38:09.030Z,33.00
2023-04-22T09:40:38.113Z,33.03
2023-04-22T09:43:07.523Z,28.27
2023-04-22T09:45:36.407Z,31.43
2023-04-22T09:48:18.205Z,31.67
2023-04-22T09:50:49.601Z,30.20
2023-04-22T09:53:32.967Z,31.37
2023-04-22T09:56:00.032Z,32.43
2023-04-22T09:58:27.978Z,33.27
2023-04-22T10:00:57.870Z,30.57
2023-04-22T10:03:25.002Z,29.33
2023-04-22T10:05:52.339Z,29.63
2023-04-22T10:08:19.231Z,30.80
2023-04-22T10:10:46.305Z,29.17
2023-04-22T10:13:13.183Z,31.00
2023-04-22T10:15:48.504Z,30.70
2023-04-22T10:18:39.251Z,30.53
2023-04-22T10:21:07.074Z,30.43
2023-04-22T10:23:34.055Z,29.13
2023-04-22T10:26:01.062Z,29.60
2023-04-22T10:28:31.798Z,28.23
2023-04-22T10:30:58.541Z,31.07
2023-04-22T10:33:27.727Z,30.17
2023-04-22T10:36:14.462Z,30.13
2023-04-22T10:39:02.093Z,29.57
2023-04-22T10:41:35.726Z,29.83
2023-04-22T10:44:06.972Z,30.33
2023-04-22T10:46:45.470Z,27.70
2023-04-22T10:49:24.235Z,26.77
2023-04-22T10:51:55.808Z,27.00
2023-04-22T10:54:31.447Z,26.27
2023-04-22T10:57:19.291Z,28.07
2023-04-22T10:59:54.370Z,28.57
2023-04-22T11:02:22.847Z,26.30
2023-04-22T11:04:50.966Z,26.60
2023-04-22T11:07:22.768Z,26.33
2023-04-22T11:10:07.816Z,25.67
2023-04-22T11:12:41.810Z,24.33
2023-04-22T11:15:14.558Z,24.27
2023-04-22T11:17:47.510Z,20.70
2023-04-22T11:20:18.278Z,21.80
2023-04-22T11:22:48.365Z,22.03
2023-04-22T11:25:15.446Z,21.87
2023-04-22T11:27:43.776Z,19.97
2023-04-22T11:30:17.574Z,18.90
2023-04-22T11:32:47.104Z,20.50
2023-04-22T11:35:19.776Z,18.00
2023-04-22T11:38:08.672Z,17.80
2023-04-22T11:40:39.937Z,19.13
2023-04-22T11:43:09.781Z,17.00
2023-04-22T11:45:38.102Z,17.87
2023-04-22T11:48:09.936Z,19.73
2023-04-22T11:50:39.363Z,18.87
2023-04-22T11:53:15.238Z,18.60
2023-04-22T11:55:42.851Z,17.77
2023-04-22T11:58:10.846Z,18.90
2023-04-22T12:00:41.901Z,19.40
2023-04-22T12:03:17.160Z,20.17
2023-04-22T12:05:49.982Z,20.43
2023-04-22T12:08:26.216Z,21.00
2023-04-22T12:10:58.699Z,24.10
2023-04-22T12:13:30.168Z,21.70
2023-04-22T12:16:02.330Z,21.57
2023-04-22T12:18:32.912Z,21.67
2023-04-22T12:21:10.235Z,22.23
2023-04-22T12:23:50.426Z,20.50
2023-04-22T12:26:19.192Z,20.60
2023-04-22T12:28:46.648Z,20.20
2023-04-22T12:31:15.065Z,20.93
2023-04-22T12:33:42.721Z,19.27
2023-04-22T12:36:10.304Z,19.17
2023-04-22T12:38:38.047Z,18.93
2023-04-22T12:41:06.407Z,20.27
2023-04-22T12:43:36.647Z,21.37
2023-04-22T12:46:04.382Z,21.63
2023-04-22T12:48:31.756Z,21.20
2023-04-22T12:50:59.200Z,19.47
2023-04-22T12:53:27.965Z,17.67
2023-04-22T12:55:55.506Z,18.10
2023-04-22T12:58:22.381Z,19.53
2023-04-22T13:00:49.150Z,19.43
2023-04-22T13:03:16.480Z,19.53
2023-04-22T13:05:45.334Z,18.77
2023-04-22T13:08:12.227Z,18.23
2023-04-22T13:10:39.050Z,17.17
2023-04-22T13:15:38.798Z,20.60
2023-04-22T13:18:05.859Z,18.63
2023-04-22T13:20:32.641Z,18.23
2023-04-22T13:22:59.384Z,18.03
2023-04-22T13:25:26.166Z,16.73
2023-04-22T13:27:52.909Z,17.20
2023-04-22T13:30:20.161Z,17.43
2023-04-22T13:32:47.082Z,18.97
2023-04-22T13:35:13.838Z,18.20
2023-04-22T13:37:40.718Z,19.17
2023-04-22T13:40:08.625Z,15.77
2023-04-22T13:42:35.538Z,15.03
2023-04-22T13:45:02.268Z,16.17
2023-04-22T13:47:29.483Z,15.37
2023-04-22T13:49:57.755Z,15.73
2023-04-22T13:52:24.721Z,13.97
2023-04-22T13:54:51.613Z,14.57
2023-04-22T13:57:18.679Z,14.77
2023-04-22T13:59:45.388Z,13.07
2023-04-22T14:02:12.165Z,12.63
2023-04-22T14:04:38.961Z,12.37
2023-04-22T14:07:05.850Z,11.70
2023-04-22T14:09:32.661Z,11.47
2023-04-22T14:11:59.437Z,9.80
2023-04-22T14:14:26.225Z,8.07
2023-04-22T14:16:53.005Z,8.37
2023-04-22T14:19:20.199Z,9.50
2023-04-22T14:21:47.353Z,10.93
2023-04-22T14:24:14.419Z,9.83
2023-04-22T14:26:41.361Z,10.97
2023-04-22T14:29:08.805Z,12.20
2023-04-22T14:31:35.786Z,12.03
2023-04-22T14:34:02.765Z,8.67
2023-04-22T14:36:29.969Z,9.70
2023-04-22T14:38:56.674Z,9.63
2023-04-22T14:41:23.869Z,9.50
2023-04-22T14:43:50.630Z,11.10
2023-04-22T14:46:17.364Z,10.17
2023-04-22T14:48:44.806Z,10.37
2023-04-22T14:51:11.821Z,10.83
2023-04-22T14:53:38.967Z,11.73
2023-04-22T14:56:05.721Z,13.70
2023-04-22T14:58:32.619Z,13.43
2023-04-22T15:00:59.948Z,14.50
2023-04-22T15:03:27.021Z,15.07
2023-04-22T15:05:55.270Z,13.20
2023-04-22T15:08:22.606Z,14.83
2023-04-22T15:10:49.432Z,14.13
2023-04-22T15:13:16.240Z,15.37
2023-04-22T15:15:43.185Z,16.17
2023-04-22T15:18:12.559Z,16.17
2023-04-22T15:20:39.352Z,16.70
2023-04-22T15:23:06.050Z,16.33
2023-04-22T15:25:33.186Z,16.33
2023-04-22T15:27:59.983Z,16.93
2023-04-22T15:30:26.829Z,15.73
2023-04-22T15:32:53.735Z,15.40
2023-04-22T15:35:21.587Z,15.13
2023-04-22T15:37:48.371Z,16.43
2023-04-22T15:40:15.368Z,14.97
2023-04-22T15:42:42.326Z,16.37
2023-04-22T15:45:09.439Z,16.87
2023-04-22T15:47:37.790Z,16.40
2023-04-22T15:50:09.060Z,16.20
2023-04-22T15:52:37.703Z,15.13
2023-04-22T15:55:06.137Z,16.60
2023-04-22T15:57:34.995Z,17.27
2023-04-22T16:00:13.901Z,16.57
2023-04-22T16:02:42.986Z,16.70
2023-04-22T16:05:11.759Z,16.10
2023-04-22T16:07:39.524Z,16.73
2023-04-22T16:10:07.204Z,16.37
2023-04-22T16:12:34.527Z,16.43
2023-04-22T16:15:01.958Z,16.50
2023-04-22T16:17:29.023Z,15.30
2023-04-22T16:19:55.939Z,16.33
2023-04-22T16:22:22.800Z,16.47
2023-04-22T16:24:49.520Z,17.05
2023-04-22T16:27:18.118Z,15.43
2023-04-22T16:29:45.328Z,13.63
2023-04-22T16:32:12.364Z,11.93
2023-04-22T16:34:39.263Z,11.70
2023-04-22T16:37:06.516Z,11.03
2023-04-22T16:39:34.011Z,11.77
2023-04-22T16:42:02.301Z,11.77
2023-04-22T16:44:29.299Z,11.87
2023-04-22T16:46:56.172Z,11.53
2023-04-22T16:49:23.176Z,11.03
2023-04-22T16:51:49.954Z,10.77
2023-04-22T16:54:16.803Z,10.00
2023-04-22T16:56:43.543Z,10.80
2023-04-22T16:59:10.456Z,10.40
2023-04-22T17:01:37.421Z,9.87
2023-04-22T17:04:04.362Z,10.67
2023-04-22T17:06:32.429Z,10.80
2023-04-22T17:08:59.919Z,10.30
2023-04-22T17:11:26.759Z,10.20
2023-04-22T17:13:53.716Z,11.13
2023-04-22T17:16:21.010Z,10.83
2023-04-22T17:18:47.933Z,10.43
2023-04-22T17:21:16.383Z,10.67
2023-04-22T17:23:43.270Z,10.07
2023-04-22T17:26:10.039Z,11.13
2023-04-22T17:28:37.034Z,9.83
2023-04-22T17:31:04.198Z,9.73
2023-04-22T17:33:31.436Z,10.20
2023-04-22T17:35:58.294Z,10.03
2023-04-22T17:38:25.053Z,10.37
2023-04-22T17:40:51.938Z,9.80
2023-04-22T17:43:18.720Z,10.40
2023-04-22T17:45:45.582Z,10.40
2023-04-22T17:48:12.326Z,11.00
2023-04-22T17:50:39.129Z,10.20
2023-04-22T17:53:05.956Z,10.13
2023-04-22T17:55:35.243Z,11.00
2023-04-22T17:58:02.844Z,10.40
2023-04-22T18:00:30.747Z,10.87
2023-04-22T18:02:57.910Z,10.53
2023-04-22T18:05:27.047Z,11.43
2023-04-22T18:08:00.708Z,11.30
2023-04-22T18:10:27.989Z,10.93
2023-04-22T18:12:55.421Z,11.80
2023-04-22T18:15:23.516Z,11.67
2023-04-22T18:17:51.207Z,12.07
2023-04-22T18:20:19.597Z,11.90
2023-04-22T18:22:52.072Z,11.73
2023-04-22T18:25:18.977Z,12.33
2023-04-22T18:27:46.309Z,12.63
2023-04-22T18:30:13.585Z,14.00
2023-04-22T18:32:40.577Z,13.73
2023-04-22T18:35:08.140Z,13.03
2023-04-22T18:37:35.074Z,14.40
2023-04-22T18:40:02.694Z,13.63
2023-04-22T18:42:29.833Z,13.27
2023-04-22T18:44:56.808Z,13.73
2023-04-22T18:47:23.784Z,15.17
2023-04-22T18:49:53.108Z,14.00
2023-04-22T18:52:19.976Z,14.57
2023-04-22T18:54:46.906Z,13.43
2023-04-22T18:57:13.719Z,13.23
2023-04-22T18:59:40.997Z,14.00
2023-04-22T19:02:10.874Z,13.67
2023-04-22T19:04:38.024Z,13.47
2023-04-22T19:07:05.207Z,13.97
2023-04-22T19:09:32.342Z,13.63
2023-04-22T19:11:59.657Z,14.10
2023-04-22T19:14:26.639Z,14.33
2023-04-22T19:16:53.448Z,13.57
2023-04-22T19:19:20.168Z,14.27
2023-04-22T19:21:47.168Z,14.10
2023-04-22T19:24:14.403Z,14.23
2023-04-22T19:26:41.347Z,14.73
2023-04-22T19:29:08.779Z,14.63
2023-04-22T19:31:35.676Z,13.40
2023-04-22T19:34:03.103Z,14.40
2023-04-22T19:36:30.075Z,14.20
2023-04-22T19:38:56.856Z,14.40
2023-04-22T19:41:24.133Z,14.73
2023-04-22T19:43:51.249Z,14.23
2023-04-22T19:46:18.131Z,13.90
2023-04-22T19:48:45.201Z,14.93
2023-04-22T19:51:12.754Z,13.60
2023-04-22T19:53:41.147Z,13.80
2023-04-22T19:56:09.323Z,14.87
2023-04-22T19:58:36.582Z,14.83
2023-04-22T20:01:04.558Z,14.93
2023-04-22T20:03:31.602Z,15.23
2023-04-22T20:06:00.380Z,15.43
2023-04-22T20:08:30.814Z,16.37
2023-04-22T20:10:59.567Z,15.43
2023-04-22T20:13:26.890Z,16.27
2023-04-22T20:15:53.780Z,17.97
2023-04-22T20:18:20.771Z,16.63
2023-04-22T20:20:49.245Z,16.83
2023-04-22T20:23:21.253Z,16.90
2023-04-22T20:25:50.165Z,17.43
2023-04-22T20:28:17.411Z,16.23
2023-04-22T20:30:44.453Z,15.97
2023-04-22T20:33:15.178Z,16.47
2023-04-22T20:35:44.230Z,16.23
2023-04-22T20:38:13.325Z,16.77
2023-04-22T20:40:41.132Z,15.57
2023-04-22T20:43:08.058Z,13.87
2023-04-22T20:45:35.132Z,14.77
2023-04-22T20:48:02.043Z,13.43
2023-04-22T20:50:33.448Z,14.57
2023-04-22T20:53:01.423Z,14.70
2023-04-22T20:55:28.351Z,14.87
2023-04-22T20:57:55.301Z,15.67
2023-04-22T21:00:22.380Z,15.00
2023-04-22T21:02:50.617Z,14.77
2023-04-22T21:05:17.982Z,13.47
2023-04-22T21:07:47.042Z,13.53
2023-04-22T21:10:14.433Z,12.93
2023-04-22T21:12:41.378Z,13.07
2023-04-22T21:15:09.232Z,12.70
2023-04-22T21:17:40.240Z,12.83
2023-04-22T21:20:09.383Z,12.67
2023-04-22T21:22:37.504Z,12.90
2023-04-22T21:25:04.975Z,11.97
2023-04-22T21:27:32.020Z,11.10
2023-04-22T21:29:59.069Z,10.40
2023-04-22T21:32:26.710Z,10.33
2023-04-22T21:34:53.461Z,10.17
2023-04-22T21:37:20.249Z,9.10
2023-04-22T21:39:47.069Z,8.70
2023-04-22T21:42:13.812Z,7.37
2023-04-22T21:44:40.693Z,8.10
2023-04-22T21:47:07.615Z,8.33
2023-04-22T21:49:34.371Z,7.60
2023-04-22T21:52:01.258Z,7.37
2023-04-22T21:54:28.083Z,7.87
2023-04-22T21:56:56.234Z,7.87
2023-04-22T21:59:24.723Z,7.17
2023-04-22T22:01:52.001Z,8.33
2023-04-22T22:04:18.958Z,7.20
2023-04-22T22:06:45.904Z,7.77
2023-04-22T22:09:13.775Z,8.10
2023-04-22T22:11:40.703Z,8.50
2023-04-22T22:14:07.510Z,8.37
2023-04-22T22:16:35.035Z,8.50
2023-04-22T22:19:04.702Z,8.03
2023-04-22T22:21:33.319Z,8.67
2023-04-22T22:24:00.202Z,9.07
2023-04-22T22:26:28.025Z,9.07
2023-04-22T22:28:55.286Z,8.87
2023-04-22T22:31:22.168Z,9.80
2023-04-22T22:33:49.128Z,11.40
2023-04-22T22:36:16.298Z,10.77
2023-04-22T22:38:43.268Z,10.67
2023-04-22T22:41:10.307Z,12.30
2023-04-22T22:43:37.353Z,11.93
2023-04-22T22:46:04.258Z,12.70
2023-04-22T22:48:31.300Z,14.33
2023-04-22T22:50:58.161Z,12.97
2023-04-22T22:53:24.879Z,12.67
2023-04-22T22:55:51.690Z,13.60
2023-04-22T22:58:18.648Z,14.00
2023-04-22T23:00:45.531Z,13.63
2023-04-22T23:03:12.751Z,13.00
2023-04-22T23:05:39.652Z,13.40
2023-04-22T23:08:06.880Z,13.77
2023-04-22T23:10:33.869Z,14.17
2023-04-22T23:13:00.592Z,14.10
2023-04-22T23:15:27.309Z,14.57
2023-04-22T23:17:54.040Z,15.10
2023-04-22T23:20:22.328Z,14.90
2023-04-22T23:22:50.706Z,15.30
2023-04-22T23:25:17.825Z,15.17
2023-04-22T23:27:45.266Z,15.43
2023-04-22T23:30:12.501Z,15.53
2023-04-22T23:32:43.424Z,16.20
2023-04-22T23:35:14.071Z,14.97
2023-04-22T23:37:45.429Z,15.80
2023-04-22T23:40:13.519Z,17.67
2023-04-22T23:42:40.422Z,16.13
2023-04-22T23:45:09.648Z,17.27
2023-04-22T23:47:37.095Z,16.53
2023-04-22T23:50:04.882Z,16.97
2023-04-22T23:52:31.746Z,18.87
2023-04-22T23:54:58.771Z,19.03
2023-04-22T23:57:25.889Z,19.83
2023-04-22T23:59:52.875Z,19.17
